Time;durP1;ratioP1;P1;durP2;ratioP2;P2;SDS_P1;SDS_P2;PMS_P1;PMS_P2;Temp;Humidity;BMP_temperature;BMP_pressure;BME280_temperature;BME280_humidity;BME280_pressure;Samples;Min_cycle;Max_cycle;Signal;HPM_P1;HPM_P2
2021/06/04 00:01:50;;;;;;;0.45;0.25;;;;;;;13.41;59.82;101021.00;6300217;22;20072;-73
2021/06/04 00:04:17;;;;;;;1.42;0.63;;;;;;;13.42;59.75;101014.44;6296605;22;20079;-73
2021/06/04 00:06:42;;;;;;;1.83;0.30;;;;;;;13.43;59.61;101005.09;6275458;22;20003;-72
2021/06/04 00:09:11;;;;;;;0.55;0.20;;;;;;;13.37;59.25;100988.88;6274580;22;20345;-72
2021/06/04 00:11:43;;;;;;;0.75;0.35;;;;;;;13.31;59.08;100974.25;6301657;22;20042;-72
2021/06/04 00:14:13;;;;;;;1.67;0.40;;;;;;;13.31;58.84;100996.22;6277359;22;20049;-72
2021/06/04 00:16:43;;;;;;;0.60;0.43;;;;;;;13.27;58.34;100997.88;6305693;22;20334;-71
2021/06/04 00:19:13;;;;;;;1.15;0.25;;;;;;;13.18;58.81;101003.06;6303677;22;20185;-72
2021/06/04 00:21:55;;;;;;;0.40;0.40;;;;;;;13.08;58.96;100987.38;6298708;22;20003;-73
2021/06/04 00:24:24;;;;;;;1.05;0.20;;;;;;;13.04;58.99;101000.00;6299941;22;20430;-72
2021/06/04 00:26:52;;;;;;;0.50;0.40;;;;;;;13.01;59.04;101002.44;6305246;22;20007;-72
2021/06/04 00:29:18;;;;;;;1.35;0.30;;;;;;;12.96;58.66;101000.50;6305304;22;20026;-73
2021/06/04 00:31:45;;;;;;;1.23;0.38;;;;;;;12.95;58.73;101003.50;6304979;22;20011;-73
2021/06/04 00:34:13;;;;;;;0.93;0.65;;;;;;;12.92;58.45;101015.84;6303755;22;20422;-72
2021/06/04 00:36:43;;;;;;;1.17;0.50;;;;;;;12.89;58.87;100999.91;6253025;22;20022;-72
2021/06/04 00:39:10;;;;;;;0.98;0.40;;;;;;;12.89;58.83;100988.94;6275265;22;20019;-73
2021/06/04 00:41:46;;;;;;;0.85;0.40;;;;;;;12.85;58.64;100988.66;6301190;22;20026;-72
2021/06/04 00:44:13;;;;;;;0.75;0.30;;;;;;;12.84;58.55;100980.69;6276306;22;20007;-73
2021/06/04 00:46:39;;;;;;;0.57;0.20;;;;;;;12.77;58.52;100967.22;6272192;22;20456;-72
2021/06/04 00:49:06;;;;;;;0.40;0.20;;;;;;;12.80;58.54;100985.06;6275943;22;20003;-73
2021/06/04 00:51:37;;;;;;;1.10;0.40;;;;;;;12.74;58.65;100982.28;6274020;22;20030;-72
2021/06/04 00:54:05;;;;;;;0.63;0.30;;;;;;;12.64;58.31;100975.94;6280666;22;20218;-71
2021/06/04 00:56:32;;;;;;;3.90;0.47;;;;;;;12.60;58.57;100981.13;6307545;22;20003;-71
2021/06/04 00:58:58;;;;;;;1.63;0.60;;;;;;;12.53;58.64;100986.03;6282696;22;20038;-73
2021/06/04 01:01:29;;;;;;;1.10;0.55;;;;;;;12.49;58.60;100979.41;6254119;22;20354;-71
2021/06/04 01:04:04;;;;;;;0.90;0.50;;;;;;;12.47;59.16;100976.09;6300829;22;20066;-72
2021/06/04 01:07:08;;;;;;;0.73;0.47;;;;;;;12.47;58.46;100976.09;6275073;22;20010;-72
2021/06/04 01:10:01;;;;;;;0.50;0.40;;;;;;;12.43;58.85;100989.53;6275613;22;20116;-73
2021/06/04 01:12:32;;;;;;;0.75;0.40;;;;;;;12.37;58.64;100982.38;6276937;22;20622;-72
2021/06/04 01:15:19;;;;;;;1.85;0.77;;;;;;;12.32;58.86;100991.34;6302817;22;20010;-73
2021/06/04 01:18:02;;;;;;;0.93;0.38;;;;;;;12.29;58.71;100991.88;6305095;22;20377;-72
2021/06/04 01:20:31;;;;;;;0.82;0.32;;;;;;;12.23;58.92;100987.47;6302102;22;20009;-72
2021/06/04 01:23:23;;;;;;;1.13;0.50;;;;;;;12.23;59.51;100988.28;6304195;22;20030;-72
2021/06/04 01:25:52;;;;;;;0.90;0.38;;;;;;;12.23;59.21;100993.75;6274263;22;20390;-73
2021/06/04 01:28:23;;;;;;;0.68;0.30;;;;;;;12.28;59.32;100989.41;6302629;22;20090;-73
2021/06/04 01:31:05;;;;;;;0.50;0.20;;;;;;;12.35;59.29;100996.34;6297796;22;20436;-72
2021/06/04 01:34:09;;;;;;;1.02;0.30;;;;;;;12.45;59.34;100994.75;6299254;22;20326;-72
2021/06/04 01:36:45;;;;;;;0.20;0.20;;;;;;;12.42;59.06;100987.06;6265524;22;20003;-73
2021/06/04 01:39:19;;;;;;;0.45;0.35;;;;;;;12.45;59.03;101000.22;6302979;22;19995;-73
2021/06/04 01:41:48;;;;;;;0.52;0.30;;;;;;;12.46;59.30;100994.47;6275697;22;19999;-72
2021/06/04 01:44:38;;;;;;;1.70;0.57;;;;;;;12.50;59.17;100989.28;6304905;22;20014;-72
2021/06/04 01:47:08;;;;;;;0.73;0.55;;;;;;;12.48;59.59;100984.06;6275887;22;20010;-73
2021/06/04 01:49:40;;;;;;;0.63;0.45;;;;;;;12.51;59.48;100988.19;6274774;22;20003;-72
2021/06/04 01:52:20;;;;;;;0.60;0.32;;;;;;;12.53;58.61;100988.78;6300704;22;20004;-72
2021/06/04 01:54:56;;;;;;;0.50;0.40;;;;;;;12.56;59.23;100997.28;6303752;22;20429;-73
2021/06/04 01:57:26;;;;;;;1.25;0.43;;;;;;;12.56;59.11;100990.97;6275739;22;20007;-72
2021/06/04 01:59:53;;;;;;;1.85;0.32;;;;;;;12.60;59.03;101002.25;6277183;22;20018;-72
2021/06/04 02:02:21;;;;;;;2.83;0.35;;;;;;;12.62;59.24;100995.41;6275171;22;20013;-73
2021/06/04 02:04:53;;;;;;;0.28;0.20;;;;;;;12.63;59.35;100997.06;6294856;22;19999;-72
2021/06/04 02:07:26;;;;;;;0.93;0.50;;;;;;;12.66;59.33;101002.00;6301423;22;20023;-73
2021/06/04 02:09:53;;;;;;;0.75;0.50;;;;;;;12.68;59.41;100999.81;6273029;22;20418;-72
2021/06/04 02:12:20;;;;;;;1.50;0.52;;;;;;;12.72;59.19;100995.44;6302340;22;20015;-73
2021/06/04 02:14:50;;;;;;;3.25;0.50;;;;;;;12.79;59.60;101005.34;6250689;22;20007;-72
2021/06/04 02:17:37;;;;;;;0.77;0.52;;;;;;;12.85;58.90;101012.53;6276166;22;20086;-71
2021/06/04 02:20:10;;;;;;;5.05;0.55;;;;;;;12.85;59.06;101012.53;6271397;22;20086;-72
2021/06/04 02:22:40;;;;;;;4.15;0.45;;;;;;;12.85;59.09;101004.28;6273586;22;20374;-71
2021/06/04 02:25:24;;;;;;;0.85;0.55;;;;;;;12.87;58.59;101005.69;6275978;22;20070;-72
2021/06/04 02:28:28;;;;;;;4.32;0.82;;;;;;;12.87;58.73;100988.38;6301121;22;20002;-72
2021/06/04 02:31:43;;;;;;;2.50;0.50;;;;;;;12.86;58.72;100975.75;6230750;22;20432;-73
2021/06/04 02:34:18;;;;;;;2.35;1.05;;;;;;;12.81;58.58;100975.75;6272218;22;20472;-73
2021/06/04 02:36:58;;;;;;;1.63;0.80;;;;;;;12.65;59.21;100950.97;6307231;22;20010;-73
2021/06/04 02:39:31;;;;;;;0.30;0.20;;;;;;;12.69;59.08;100970.47;6307136;22;20078;-76
2021/06/04 02:42:15;;;;;;;0.90;0.50;;;;;;;12.71;59.28;100969.09;6309417;22;19999;-76
2021/06/04 02:44:59;;;;;;;0.57;0.35;;;;;;;12.65;58.96;100972.09;6305567;22;20003;-75
2021/06/04 02:47:35;;;;;;;0.75;0.28;;;;;;;12.62;59.46;100978.94;6307150;22;20078;-76
2021/06/04 02:50:15;;;;;;;1.77;0.57;;;;;;;12.56;59.50;100980.00;6278805;22;20623;-75
2021/06/04 02:52:43;;;;;;;0.77;0.32;;;;;;;12.55;59.37;100986.59;6282537;22;20307;-77
2021/06/04 02:55:35;;;;;;;0.65;0.47;;;;;;;12.58;59.59;100975.88;6282589;22;19999;-76
2021/06/04 02:58:00;;;;;;;0.75;0.40;;;;;;;12.57;59.70;100981.63;6275871;22;20094;-75
2021/06/04 03:00:42;;;;;;;0.20;0.10;;;;;;;12.57;59.96;100981.63;6278769;22;20094;-75
2021/06/04 03:03:08;;;;;;;1.17;0.55;;;;;;;12.52;59.97;100979.69;6306360;22;20037;-77
2021/06/04 03:05:38;;;;;;;0.30;0.30;;;;;;;12.51;59.87;100983.56;6253332;22;19999;-76
2021/06/04 03:08:05;;;;;;;0.30;0.20;;;;;;;12.50;59.75;100986.53;6307040;22;20337;-77
2021/06/04 03:10:35;;;;;;;0.68;0.30;;;;;;;12.51;60.36;100988.19;6279172;22;20310;-76
2021/06/04 03:13:03;;;;;;;5.00;0.40;;;;;;;12.52;60.60;100992.59;6305328;22;20027;-77
2021/06/04 03:15:47;;;;;;;5.13;0.60;;;;;;;12.56;60.52;100993.72;6307129;22;20068;-77
2021/06/04 03:18:17;;;;;;;2.72;0.40;;;;;;;12.52;60.56;100990.66;6310808;22;20006;-76
2021/06/04 03:20:45;;;;;;;0.40;0.40;;;;;;;12.56;60.68;100996.47;6307851;22;20034;-75
2021/06/04 03:23:22;;;;;;;1.38;0.63;;;;;;;12.56;60.57;100996.47;6308748;22;20009;-77
2021/06/04 03:25:54;;;;;;;0.47;0.40;;;;;;;12.57;60.63;101000.84;6308815;22;20091;-76
2021/06/04 03:28:25;;;;;;;1.17;0.90;;;;;;;12.54;60.89;100995.88;6283267;22;20383;-77
2021/06/04 03:30:51;;;;;;;4.28;0.73;;;;;;;12.58;61.05;101010.72;6309572;22;20006;-77
2021/06/04 03:33:21;;;;;;;2.97;0.35;;;;;;;12.61;61.14;101010.19;6311193;22;20007;-75
2021/06/04 03:35:47;;;;;;;0.40;0.30;;;;;;;12.62;61.08;101009.13;6309223;22;20003;-78
2021/06/04 03:38:18;;;;;;;0.57;0.35;;;;;;;12.64;61.25;101004.19;6284730;22;20011;-75
2021/06/04 03:40:44;;;;;;;0.30;0.20;;;;;;;12.64;60.86;100987.72;6303459;22;20015;-76
2021/06/04 03:43:18;;;;;;;0.13;0.13;;;;;;;12.73;60.99;100996.28;6309587;22;20037;-75
2021/06/04 03:45:46;;;;;;;0.55;0.20;;;;;;;12.85;60.88;101007.03;6306575;22;20005;-77
2021/06/04 03:48:17;;;;;;;0.17;0.10;;;;;;;12.90;60.44;101024.34;6308271;22;20002;-75
2021/06/04 03:50:45;;;;;;;0.30;0.13;;;;;;;12.98;60.60;101025.78;6308915;22;20069;-77
2021/06/04 03:53:11;;;;;;;0.30;0.30;;;;;;;12.96;60.39;101025.22;6275280;22;20014;-77
2021/06/04 03:55:40;;;;;;;0.57;0.40;;;;;;;12.97;60.51;101035.09;6309957;22;20023;-78
2021/06/04 03:58:06;;;;;;;0.32;0.30;;;;;;;12.91;60.74;101036.19;6280065;22;20035;-76
2021/06/04 04:00:37;;;;;;;4.10;0.43;;;;;;;12.83;60.40;101033.94;6277774;22;20307;-77
2021/06/04 04:03:04;;;;;;;1.55;1.00;;;;;;;12.75;60.86;101043.50;6309369;22;19999;-77
2021/06/04 04:05:30;;;;;;;1.67;1.05;;;;;;;12.63;61.29;101035.47;6310562;22;20003;-78
2021/06/04 04:07:55;;;;;;;0.80;0.65;;;;;;;12.57;61.17;101042.00;6280231;22;20341;-77
2021/06/04 04:10:25;;;;;;;1.45;0.47;;;;;;;12.55;61.62;101038.69;6283231;22;20011;-77
2021/06/04 04:12:52;;;;;;;0.70;0.43;;;;;;;12.52;61.60;101036.50;6275408;22;20015;-75
2021/06/04 04:15:18;;;;;;;2.45;0.95;;;;;;;12.55;61.87;101035.97;6281877;22;19999;-76
2021/06/04 04:17:49;;;;;;;0.68;0.43;;;;;;;12.58;61.24;101032.69;6311160;22;20082;-78
2021/06/04 04:20:17;;;;;;;0.68;0.40;;;;;;;12.62;61.64;101036.56;6309057;22;20007;-75
2021/06/04 04:22:43;;;;;;;1.17;0.55;;;;;;;12.67;61.96;101042.06;6285315;22;20003;-76
2021/06/04 04:25:10;;;;;;;0.55;0.35;;;;;;;12.69;61.71;101033.59;6284412;22;20022;-77
2021/06/04 04:27:35;;;;;;;0.82;0.35;;;;;;;12.73;62.11;101032.78;6261347;22;20019;-77
2021/06/04 04:30:01;;;;;;;1.17;0.50;;;;;;;12.70;61.90;101032.47;6287037;22;20037;-77
2021/06/04 04:32:26;;;;;;;1.63;0.77;;;;;;;12.69;61.92;101030.84;6312125;22;20474;-77
2021/06/04 04:34:52;;;;;;;3.50;1.05;;;;;;;12.77;62.48;101045.97;6279867;22;20018;-77
2021/06/04 04:37:17;;;;;;;0.80;0.63;;;;;;;12.82;62.40;101043.25;6312920;22;20011;-76
2021/06/04 04:39:46;;;;;;;1.98;0.80;;;;;;;12.80;62.82;101034.47;6284635;22;20003;-76
2021/06/04 04:42:14;;;;;;;4.22;0.82;;;;;;;12.88;62.39;101042.19;6292615;22;20003;-76
2021/06/04 04:44:42;;;;;;;2.72;0.40;;;;;;;12.92;62.25;101044.16;6324074;22;20076;-76
2021/06/04 04:47:11;;;;;;;1.00;0.70;;;;;;;13.01;62.09;101043.63;6292904;22;20062;-76
2021/06/04 04:49:36;;;;;;;1.58;0.45;;;;;;;13.07;61.96;101048.88;6295042;22;19999;-75
2021/06/04 04:52:10;;;;;;;3.70;0.40;;;;;;;13.18;61.99;101046.19;6256761;22;20374;-76
2021/06/04 04:54:37;;;;;;;0.80;0.50;;;;;;;13.22;61.75;101050.03;6261842;22;20333;-76
2021/06/04 04:57:04;;;;;;;1.60;0.90;;;;;;;13.21;62.13;101046.44;6284912;22;20491;-77
2021/06/04 04:59:29;;;;;;;2.25;0.75;;;;;;;13.19;62.29;101048.66;6256899;22;20018;-77
2021/06/04 05:01:54;;;;;;;4.93;0.90;;;;;;;13.16;62.30;101042.88;6274803;22;20107;-76
2021/06/04 05:04:20;;;;;;;3.22;1.05;;;;;;;13.10;62.49;101042.03;6281376;22;20128;-76
2021/06/04 05:06:45;;;;;;;3.38;0.70;;;;;;;13.12;62.78;101047.25;6250135;22;20444;-76
2021/06/04 05:09:11;;;;;;;2.33;1.00;;;;;;;13.12;62.76;101047.25;6283205;22;20022;-77
2021/06/04 05:11:36;;;;;;;4.70;1.00;;;;;;;13.08;62.99;101047.78;6283807;22;20382;-77
2021/06/04 05:14:02;;;;;;;1.77;0.50;;;;;;;13.15;62.69;101052.22;6291034;22;20025;-76
2021/06/04 05:16:27;;;;;;;3.05;0.80;;;;;;;13.19;63.73;101053.31;6262599;22;20025;-77
2021/06/04 05:18:53;;;;;;;2.78;1.33;;;;;;;13.22;63.16;101048.09;6255678;22;20014;-75
2021/06/04 05:21:19;;;;;;;4.07;0.73;;;;;;;13.27;63.31;101050.03;6279035;22;20003;-77
2021/06/04 05:23:45;;;;;;;2.65;1.08;;;;;;;13.26;63.12;101053.91;6301125;22;20099;-75
2021/06/04 05:26:11;;;;;;;0.75;0.50;;;;;;;13.32;63.70;101054.75;6305213;22;20429;-74
2021/06/04 05:28:45;;;;;;;1.88;0.80;;;;;;;13.33;63.13;101054.47;6311639;22;20003;-77
2021/06/04 05:31:13;;;;;;;0.70;0.50;;;;;;;13.47;62.89;101071.31;6283459;22;19999;-77
2021/06/04 05:33:42;;;;;;;0.60;0.60;;;;;;;13.54;62.57;101066.38;6274575;22;20423;-77
2021/06/04 05:36:16;;;;;;;1.48;0.80;;;;;;;13.62;63.12;101073.25;6310377;22;20014;-76
2021/06/04 05:38:42;;;;;;;0.45;0.43;;;;;;;13.66;62.69;101068.88;6280835;22;19995;-76
2021/06/04 05:41:07;;;;;;;1.20;0.73;;;;;;;13.67;63.07;101064.19;6282780;22;20039;-78
2021/06/04 05:43:35;;;;;;;0.98;0.63;;;;;;;13.68;62.36;101052.13;6310587;22;20060;-78
2021/06/04 05:46:03;;;;;;;0.75;0.75;;;;;;;13.74;62.92;101060.13;6313585;22;20410;-79
2021/06/04 05:48:28;;;;;;;3.45;0.98;;;;;;;13.69;62.76;101051.84;6281698;22;20299;-77
2021/06/04 05:51:01;;;;;;;1.75;0.60;;;;;;;13.69;63.03;101062.84;6307061;22;20157;-74
2021/06/04 05:53:30;;;;;;;2.05;0.73;;;;;;;13.73;62.99;101063.97;6305977;22;19999;-76
2021/06/04 05:55:57;;;;;;;0.63;0.35;;;;;;;13.78;63.66;101069.47;6307396;22;20043;-77
2021/06/04 05:58:25;;;;;;;1.52;1.42;;;;;;;13.83;63.13;101076.06;6308324;22;19999;-76
2021/06/04 06:00:55;;;;;;;0.80;0.40;;;;;;;13.90;63.10;101076.63;6302814;22;19999;-78
2021/06/04 06:03:28;;;;;;;5.50;0.75;;;;;;;13.98;63.49;101078.84;6310961;22;20006;-76
2021/06/04 06:05:54;;;;;;;2.45;0.68;;;;;;;14.02;63.08;101068.97;6313553;22;20018;-77
2021/06/04 06:08:19;;;;;;;2.13;1.17;;;;;;;14.12;62.84;101066.22;6280655;22;20149;-77
2021/06/04 06:10:45;;;;;;;0.65;0.40;;;;;;;14.20;62.88;101061.28;6262471;22;19995;-76
2021/06/04 06:13:11;;;;;;;0.93;0.35;;;;;;;14.35;62.25;101068.69;6309535;22;19999;-76
2021/06/04 06:15:38;;;;;;;0.52;0.30;;;;;;;14.52;62.19;101071.16;6317088;22;20003;-77
2021/06/04 06:18:05;;;;;;;0.10;0.10;;;;;;;14.67;62.34;101068.41;6315831;22;20014;-75
2021/06/04 06:20:34;;;;;;;0.93;0.50;;;;;;;14.88;62.00;101065.59;6308975;22;20011;-76
2021/06/04 06:23:00;;;;;;;2.20;0.60;;;;;;;15.07;61.33;101085.09;6315669;22;20061;-77
2021/06/04 06:25:39;;;;;;;0.30;0.22;;;;;;;15.27;61.19;101085.03;6292246;22;20006;-77
2021/06/04 06:28:06;;;;;;;1.13;0.65;;;;;;;15.38;60.39;101094.09;6320676;22;20010;-78
2021/06/04 06:30:34;;;;;;;0.82;0.50;;;;;;;15.51;60.44;101089.91;6317999;22;20057;-75
2021/06/04 06:33:00;;;;;;;0.50;0.22;;;;;;;15.62;59.67;101101.69;6317581;22;20006;-75
2021/06/04 06:35:41;;;;;;;2.42;0.50;;;;;;;15.70;59.74;101101.94;6319087;22;20003;-76
2021/06/04 06:38:08;;;;;;;0.28;0.20;;;;;;;15.74;59.33;101116.00;6290571;22;20015;-78
2021/06/04 06:40:35;;;;;;;1.60;0.20;;;;;;;15.75;58.74;101101.06;6315493;22;20270;-78
2021/06/04 06:43:00;;;;;;;0.22;0.20;;;;;;;15.80;58.76;101109.34;6287552;22;20047;-77
2021/06/04 06:45:27;;;;;;;0.40;0.30;;;;;;;15.85;58.58;101122.28;6289917;22;20014;-77
2021/06/04 06:47:54;;;;;;;0.90;0.40;;;;;;;15.82;57.74;101120.91;6315185;22;20037;-77
2021/06/04 06:50:21;;;;;;;1.02;0.50;;;;;;;15.82;57.65;101118.16;6317032;22;20010;-73
2021/06/04 06:52:48;;;;;;;0.85;0.40;;;;;;;15.83;57.68;101119.81;6288728;22;20061;-76
2021/06/04 06:55:22;;;;;;;0.43;0.30;;;;;;;15.78;57.65;101111.56;6315085;22;19999;-78
2021/06/04 06:57:48;;;;;;;0.55;0.30;;;;;;;15.70;57.35;101112.97;6315033;22;20318;-77
2021/06/04 07:00:36;;;;;;;5.00;0.20;;;;;;;15.75;57.54;101122.31;6282475;22;20014;-76
2021/06/04 07:03:27;;;;;;;0.70;0.40;;;;;;;15.61;57.09;101105.56;6290740;22;20062;-77
2021/06/04 07:06:26;;;;;;;;;;;;;;;;;;;;;
2021/06/04 07:09:16;;;;;;;0.50;0.50;;;;;;;15.65;57.19;101113.00;6314055;22;20034;-83
2021/06/04 07:11:55;;;;;;;;;;;;;;;;;;;;;
2021/06/04 07:14:25;;;;;;;2.35;0.47;;;;;;;15.84;56.41;101149.06;6313368;22;20081;-76
2021/06/04 07:16:51;;;;;;;1.48;0.60;;;;;;;15.74;57.01;101132.53;6314788;22;20003;-76
2021/06/04 07:19:16;;;;;;;0.98;0.45;;;;;;;15.76;56.93;101135.81;6262630;22;20064;-76
2021/06/04 07:21:46;;;;;;;0.30;0.30;;;;;;;15.68;56.56;101122.63;6312896;22;20003;-76
2021/06/04 07:24:15;;;;;;;1.73;0.55;;;;;;;15.76;56.38;101135.81;6317680;22;20030;-77
2021/06/04 07:26:49;;;;;;;0.47;0.30;;;;;;;15.88;56.13;101139.06;6287455;22;20019;-77
2021/06/04 07:29:19;;;;;;;1.20;0.40;;;;;;;15.79;56.14;101129.75;6313037;22;19991;-76
2021/06/04 07:31:45;;;;;;;0.13;0.13;;;;;;;15.88;56.49;101139.06;6310840;22;20070;-78
2021/06/04 07:34:12;;;;;;;1.45;0.40;;;;;;;15.96;55.97;101151.47;6286080;22;20007;-77
2021/06/04 07:36:47;;;;;;;0.20;0.20;;;;;;;15.90;55.82;101140.75;6289440;22;20007;-76
2021/06/04 07:39:19;;;;;;;0.37;0.20;;;;;;;15.98;55.58;101134.63;6317810;22;20027;-76
2021/06/04 07:41:55;;;;;;;0.20;0.20;;;;;;;16.14;55.32;101136.19;6283346;22;19999;-76
2021/06/04 07:44:21;;;;;;;1.50;0.50;;;;;;;16.27;55.19;101145.75;6280206;22;20338;-77
2021/06/04 07:46:53;;;;;;;1.65;0.50;;;;;;;16.24;54.91;101127.00;6283710;22;20007;-78
2021/06/04 07:49:19;;;;;;;0.45;0.40;;;;;;;16.34;54.24;101140.72;6310773;22;20022;-78
2021/06/04 07:51:56;;;;;;;0.77;0.60;;;;;;;16.48;54.42;101151.94;6284396;22;20395;-76
2021/06/04 07:54:47;;;;;;;0.30;0.20;;;;;;;16.49;54.41;101131.50;6279495;22;20077;-77
2021/06/04 07:57:20;;;;;;;0.63;0.32;;;;;;;16.68;53.56;101156.47;6278471;22;19999;-77
2021/06/04 07:59:49;;;;;;;1.08;0.40;;;;;;;16.56;53.42;101137.50;6264118;22;20007;-76
2021/06/04 08:02:35;;;;;;;0.30;0.20;;;;;;;16.62;53.36;101126.41;6313735;22;20002;-78
2021/06/04 08:05:03;;;;;;;0.28;0.20;;;;;;;16.86;53.60;101148.56;6283604;22;20007;-78
2021/06/04 08:08:05;;;;;;;4.60;0.20;;;;;;;17.04;53.43;101147.88;6278369;22;20027;-76
2021/06/04 08:10:40;;;;;;;1.13;0.30;;;;;;;17.08;53.26;101128.75;6234170;22;20011;-77
2021/06/04 08:13:11;;;;;;;0.63;0.30;;;;;;;17.20;52.46;101131.97;6305166;22;20074;-77
2021/06/04 08:16:01;;;;;;;1.23;0.20;;;;;;;17.54;52.52;101155.88;6282947;22;20003;-76
2021/06/04 08:18:37;;;;;;;0.10;0.10;;;;;;;17.68;52.21;101133.03;6284870;22;20010;-76
2021/06/04 08:21:36;;;;;;;0.00;0.00;;;;;;;17.85;51.49;101138.88;6309326;22;20007;-78
2021/06/04 08:24:14;;;;;;;0.88;0.35;;;;;;;18.04;51.23;101151.94;6296029;22;20014;-77
2021/06/04 08:26:49;;;;;;;0.55;0.10;;;;;;;18.13;50.62;101128.00;6281459;22;20007;-76
2021/06/04 08:29:45;;;;;;;;;;;;;;;;;;;;;
2021/06/04 08:32:17;;;;;;;;;;;;;;;18.69;48.88;101158.69;6316697;22;20023;-80
2021/06/04 08:34:45;;;;;;;0.55;0.22;;;;;;;18.52;48.49;101124.06;6315517;22;19903;-78
2021/06/04 08:37:13;;;;;;;0.63;0.25;;;;;;;18.64;48.55;101132.69;6314954;22;20003;-78
2021/06/04 08:39:46;;;;;;;1.95;0.30;;;;;;;18.64;47.56;101127.16;6286749;22;20059;-77
2021/06/04 08:42:29;;;;;;;0.52;0.30;;;;;;;18.84;47.56;101155.66;6285787;22;20011;-78
2021/06/04 08:45:19;;;;;;;1.00;0.38;;;;;;;18.79;46.03;101161.25;6321365;22;20046;-77
2021/06/04 08:47:51;;;;;;;0.25;0.20;;;;;;;18.66;47.15;101152.63;6325587;22;20014;-76
2021/06/04 08:50:42;;;;;;;0.28;0.20;;;;;;;18.70;46.64;101157.56;6330380;22;19996;-75
2021/06/04 08:53:30;;;;;;;0.40;0.20;;;;;;;18.71;46.61;101173.06;6313572;22;20003;-77
2021/06/04 08:56:31;;;;;;;0.50;0.20;;;;;;;18.71;46.16;101160.03;6280280;22;20067;-76
2021/06/04 08:59:10;;;;;;;2.90;0.17;;;;;;;18.71;46.46;101156.44;6279825;22;20036;-77
2021/06/04 09:02:09;;;;;;;0.20;0.20;;;;;;;18.76;46.34;101161.88;6282889;22;20003;-77
2021/06/04 09:08:28;;;;;;;2.60;0.15;;;;;;;18.85;45.37;101148.97;6198642;22;20023;-77
2021/06/04 09:11:41;;;;;;;;;;;;;;;;;;;;;
2021/06/04 09:14:26;;;;;;;0.52;0.30;;;;;;;19.08;44.87;101179.63;6269280;22;20079;-76
2021/06/04 09:17:06;;;;;;;0.20;0.10;;;;;;;19.28;45.25;101193.13;6310860;22;20394;-77
2021/06/04 09:20:01;;;;;;;0.08;0.08;;;;;;;19.39;45.19;101195.69;6281505;22;20009;-77
2021/06/04 09:22:36;;;;;;;0.40;0.20;;;;;;;19.45;45.09;101188.91;6279201;22;20082;-77
2021/06/04 09:25:12;;;;;;;0.30;0.30;;;;;;;19.45;44.05;101162.03;6282871;22;20144;-76
2021/06/04 09:27:54;;;;;;;0.22;0.20;;;;;;;19.69;44.39;101183.97;6283819;22;20003;-76
2021/06/04 09:30:19;;;;;;;0.50;0.20;;;;;;;19.97;44.05;101183.97;6280429;22;20014;-77
2021/06/04 09:33:18;;;;;;;0.38;0.20;;;;;;;20.39;44.42;101193.00;6308596;22;20023;-77
2021/06/04 09:36:07;;;;;;;3.40;0.20;;;;;;;20.87;44.05;101199.13;6312233;22;20511;-76
2021/06/04 09:38:39;;;;;;;0.57;0.20;;;;;;;20.96;42.76;101190.84;6285887;22;19995;-78
2021/06/04 09:41:35;;;;;;;0.43;0.30;;;;;;;21.20;42.41;101190.47;6310511;22;20033;-78
2021/06/04 09:44:03;;;;;;;;;;;;;;;21.59;42.01;101202.78;6222372;22;20006;-78
2021/06/04 09:46:36;;;;;;;0.35;0.20;;;;;;;21.48;42.59;101190.25;6289157;22;19902;-77
2021/06/04 09:49:08;;;;;;;1.25;0.20;;;;;;;21.59;41.77;101186.09;6320449;22;20003;-77
2021/06/04 09:51:46;;;;;;;1.00;0.20;;;;;;;21.57;40.48;101183.63;6298652;22;19999;-77
2021/06/04 09:54:39;;;;;;;;;;;;;;;;;;;;;
2021/06/04 09:57:20;;;;;;;0.43;0.20;;;;;;;21.43;40.64;101182.88;6328579;22;19999;-78
2021/06/04 10:00:01;;;;;;;0.68;0.35;;;;;;;21.72;40.77;101207.41;6298177;22;19999;-77
2021/06/04 10:02:44;;;;;;;2.33;0.30;;;;;;;21.74;40.82;101187.59;6290296;22;20011;-78
2021/06/04 10:05:27;;;;;;;0.30;0.30;;;;;;;21.79;40.56;101204.97;6287439;22;20003;-78
2021/06/04 10:08:12;;;;;;;0.45;0.15;;;;;;;21.79;40.53;101196.63;6309155;22;20039;-77
2021/06/04 10:10:37;;;;;;;2.08;0.10;;;;;;;21.81;40.51;101209.41;6310512;22;19999;-77
2021/06/04 10:13:13;;;;;;;0.73;0.30;;;;;;;21.73;40.26;101213.81;6283636;22;20452;-77
2021/06/04 10:15:51;;;;;;;0.35;0.10;;;;;;;21.64;40.57;101205.44;6311405;22;20438;-77
2021/06/04 10:18:39;;;;;;;0.38;0.20;;;;;;;21.43;40.60;101180.09;6287249;22;20318;-76
2021/06/04 10:21:20;;;;;;;0.80;0.10;;;;;;;21.60;40.79;101194.09;6310299;22;20007;-78
2021/06/04 10:23:50;;;;;;;0.30;0.20;;;;;;;21.66;40.62;101203.13;6286953;22;19999;-77
2021/06/04 10:26:24;;;;;;;0.75;0.20;;;;;;;21.75;39.99;101203.97;6276857;22;20064;-77
2021/06/04 10:29:18;;;;;;;0.13;0.10;;;;;;;21.90;39.88;101201.88;6311000;22;20022;-76
2021/06/04 10:32:32;;;;;;;;;;;;;;;;;;;;;
2021/06/04 10:35:23;;;;;;;0.22;0.20;;;;;;;21.99;39.41;101193.53;6307744;22;20054;-76
2021/06/04 10:38:18;;;;;;;0.20;0.20;;;;;;;22.14;39.44;101174.41;6304442;22;20007;-77
2021/06/04 10:40:49;;;;;;;0.43;0.32;;;;;;;22.37;38.86;101185.44;6308970;22;20007;-77
2021/06/04 10:43:32;;;;;;;0.47;0.20;;;;;;;23.11;39.30;101194.66;6307567;22;20068;-77
2021/06/04 10:46:17;;;;;;;0.32;0.10;;;;;;;23.82;38.12;101189.63;6281371;22;20082;-78
2021/06/04 10:49:15;;;;;;;;;;;;;;;;;;;;;
2021/06/04 10:51:43;;;;;;;0.50;0.20;;;;;;;24.75;36.25;101195.19;6307950;22;20070;-78
2021/06/04 10:54:47;;;;;;;0.40;0.22;;;;;;;25.18;35.42;101204.25;6282040;22;20094;-78
2021/06/04 10:57:47;;;;;;;1.08;0.22;;;;;;;25.36;34.71;101200.09;6309695;22;20086;-78
2021/06/04 11:00:28;;;;;;;0.22;0.13;;;;;;;25.40;34.44;101183.44;6285554;22;20007;-78
2021/06/04 11:03:23;;;;;;;0.65;0.35;;;;;;;25.79;33.20;101195.91;6284374;22;20026;-78
2021/06/04 11:05:59;;;;;;;0.73;0.10;;;;;;;26.00;34.07;101194.19;6312126;22;20021;-77
2021/06/04 11:08:43;;;;;;;0.20;0.10;;;;;;;26.36;34.05;101196.06;6307902;22;20038;-78
2021/06/04 11:11:34;;;;;;;;;;;;;;;;;;;;;
2021/06/04 11:14:26;;;;;;;0.50;0.17;;;;;;;27.79;31.76;101203.09;6317656;22;20025;-77
2021/06/04 11:17:17;;;;;;;0.20;0.17;;;;;;;28.09;30.94;101185.72;6327930;22;19983;-77
2021/06/04 11:19:48;;;;;;;0.52;0.17;;;;;;;28.20;31.19;101183.97;6325362;22;19999;-77
2021/06/04 11:22:30;;;;;;;0.10;0.10;;;;;;;28.86;31.40;101187.72;6298076;22;20057;-76
2021/06/04 11:25:16;;;;;;;;;;;;;;;;;;;;;
2021/06/04 11:27:51;;;;;;;0.30;0.17;;;;;;;30.44;30.07;101172.50;6313255;22;20027;-76
2021/06/04 11:30:20;;;;;;;;;;;;;;;31.55;28.39;101202.25;6307895;22;19995;-77
2021/06/04 11:33:02;;;;;;;0.95;0.35;;;;;;;31.67;27.63;101185.81;6282617;22;20328;-77
2021/06/04 11:35:41;;;;;;;0.20;0.10;;;;;;;31.93;26.60;101183.13;6284040;22;20330;-78
2021/06/04 11:38:16;;;;;;;0.50;0.30;;;;;;;32.47;26.69;101198.34;6317731;22;20440;-78
2021/06/04 11:40:45;;;;;;;;;;;;;;;33.74;24.10;101199.38;6285694;22;20004;-78
2021/06/04 11:43:24;;;;;;;;;;;;;;;;;;;;;
2021/06/04 11:46:14;;;;;;;0.90;0.20;;;;;;;33.83;22.15;101201.81;6309947;22;20067;-78
2021/06/04 11:49:00;;;;;;;0.10;0.10;;;;;;;33.66;23.02;101169.38;6310920;22;20007;-78
2021/06/04 11:51:37;;;;;;;0.10;0.10;;;;;;;33.67;23.47;101165.34;6282406;22;20003;-77
2021/06/04 11:54:16;;;;;;;0.45;0.20;;;;;;;34.93;24.53;101176.19;6283102;22;20003;-78
2021/06/04 11:57:25;;;;;;;0.63;0.30;;;;;;;36.41;22.49;101174.78;6310889;22;20007;-78
2021/06/04 12:00:36;;;;;;;0.30;0.20;;;;;;;37.77;20.26;101176.72;6253261;22;20026;-78
2021/06/04 12:03:14;;;;;;;;;;;;;;;;;;;;;
2021/06/04 12:06:03;;;;;;;0.15;0.10;;;;;;;38.80;19.88;101177.81;6312021;22;20031;-79
2021/06/04 12:08:29;;;;;;;0.43;0.30;;;;;;;39.27;17.92;101178.31;6317403;22;20046;-77
2021/06/04 12:11:02;;;;;;;0.40;0.10;;;;;;;38.89;17.67;101180.88;6299582;22;19991;-77
2021/06/04 12:13:41;;;;;;;0.30;0.30;;;;;;;38.39;17.63;101183.63;6290492;22;20046;-78
2021/06/04 12:16:25;;;;;;;0.43;0.15;;;;;;;38.80;18.33;101186.41;6316463;22;20033;-78
2021/06/04 12:19:00;;;;;;;0.20;0.10;;;;;;;39.34;18.80;101168.75;6287591;22;20003;-78
2021/06/04 12:21:38;;;;;;;0.20;0.17;;;;;;;39.91;16.97;101162.72;6281899;22;20018;-77